sensor_id;sensor_type;location;lat;lon;timestamp;temperature;humidity
35796;DHT22;21916;52.428;13.302;2022-10-16T00:00:28;15.60;99.90
35796;DHT22;21916;52.428;13.302;2022-10-16T00:02:54;15.60;99.90
35796;DHT22;21916;52.428;13.302;2022-10-16T00:05:20;15.60;99.90
35796;DHT22;21916;52.428;13.302;2022-10-16T00:07:45;15.60;99.90
35796;DHT22;21916;52.428;13.302;2022-10-16T00:10:12;15.60;99.90
35796;DHT22;21916;52.428;13.302;2022-10-16T00:12:49;15.70;99.90
35796;DHT22;21916;52.428;13.302;2022-10-16T00:15:15;15.70;99.90
35796;DHT22;21916;52.428;13.302;2022-10-16T00:17:41;15.70;99.90
35796;DHT22;21916;52.428;13.302;2022-10-16T00:20:07;15.70;99.90
35796;DHT22;21916;52.428;13.302;2022-10-16T00:22:51;15.70;99.90
35796;DHT22;21916;52.428;13.302;2022-10-16T00:25:17;15.70;99.90
35796;DHT22;21916;52.428;13.302;2022-10-16T00:27:43;15.70;99.90
35796;DHT22;21916;52.428;13.302;2022-10-16T00:30:09;15.70;99.90
35796;DHT22;21916;52.428;13.302;2022-10-16T00:32:35;15.70;99.90
35796;DHT22;21916;52.428;13.302;2022-10-16T00:35:01;15.70;99.90
35796;DHT22;21916;52.428;13.302;2022-10-16T00:37:28;15.70;99.90
35796;DHT22;21916;52.428;13.302;2022-10-16T00:39:54;15.70;99.90
35796;DHT22;21916;52.428;13.302;2022-10-16T00:42:20;15.70;99.90
35796;DHT22;21916;52.428;13.302;2022-10-16T00:47:26;15.70;99.90
35796;DHT22;21916;52.428;13.302;2022-10-16T00:49:58;15.70;99.90
35796;DHT22;21916;52.428;13.302;2022-10-16T00:52:25;15.70;99.90
35796;DHT22;21916;52.428;13.302;2022-10-16T00:54:51;15.70;99.90
35796;DHT22;21916;52.428;13.302;2022-10-16T00:57:17;15.70;99.90
35796;DHT22;21916;52.428;13.302;2022-10-16T00:59:43;15.70;99.90
35796;DHT22;21916;52.428;13.302;2022-10-16T01:02:11;15.80;99.90
35796;DHT22;21916;52.428;13.302;2022-10-16T01:04:44;15.70;99.90
35796;DHT22;21916;52.428;13.302;2022-10-16T01:09:47;15.70;99.90
35796;DHT22;21916;52.428;13.302;2022-10-16T01:14:53;15.70;99.90
35796;DHT22;21916;52.428;13.302;2022-10-16T01:20:09;15.70;99.90
35796;DHT22;21916;52.428;13.302;2022-10-16T01:22:40;15.60;99.90
35796;DHT22;21916;52.428;13.302;2022-10-16T01:25:09;15.60;99.90
35796;DHT22;21916;52.428;13.302;2022-10-16T01:27:37;15.50;99.90
35796;DHT22;21916;52.428;13.302;2022-10-16T01:30:25;15.50;99.90
35796;DHT22;21916;52.428;13.302;2022-10-16T01:32:56;15.40;99.90
35796;DHT22;21916;52.428;13.302;2022-10-16T01:35:24;15.40;99.90
35796;DHT22;21916;52.428;13.302;2022-10-16T01:37:56;15.30;99.90
35796;DHT22;21916;52.428;13.302;2022-10-16T01:40:25;15.30;99.90
35796;DHT22;21916;52.428;13.302;2022-10-16T01:42:56;15.20;99.90
35796;DHT22;21916;52.428;13.302;2022-10-16T01:45:24;15.30;99.90
35796;DHT22;21916;52.428;13.302;2022-10-16T01:47:50;15.20;99.90
35796;DHT22;21916;52.428;13.302;2022-10-16T01:50:18;15.20;99.90
35796;DHT22;21916;52.428;13.302;2022-10-16T01:52:46;15.20;99.90
35796;DHT22;21916;52.428;13.302;2022-10-16T01:55:15;15.10;99.90
35796;DHT22;21916;52.428;13.302;2022-10-16T01:57:46;15.10;99.90
35796;DHT22;21916;52.428;13.302;2022-10-16T02:00:13;15.20;99.90
35796;DHT22;21916;52.428;13.302;2022-10-16T02:02:40;15.20;99.90
35796;DHT22;21916;52.428;13.302;2022-10-16T02:05:16;15.10;99.90
35796;DHT22;21916;52.428;13.302;2022-10-16T02:07:44;15.20;99.90
35796;DHT22;21916;52.428;13.302;2022-10-16T02:10:10;15.20;99.90
35796;DHT22;21916;52.428;13.302;2022-10-16T02:12:36;15.20;99.90
35796;DHT22;21916;52.428;13.302;2022-10-16T02:15:05;15.20;99.90
35796;DHT22;21916;52.428;13.302;2022-10-16T02:17:31;15.30;99.90
35796;DHT22;21916;52.428;13.302;2022-10-16T02:19:58;15.20;99.90
35796;DHT22;21916;52.428;13.302;2022-10-16T02:22:27;15.20;99.90
35796;DHT22;21916;52.428;13.302;2022-10-16T02:24:58;15.20;99.90
35796;DHT22;21916;52.428;13.302;2022-10-16T02:29:55;15.20;99.90
35796;DHT22;21916;52.428;13.302;2022-10-16T02:32:24;15.20;99.90
35796;DHT22;21916;52.428;13.302;2022-10-16T02:34:56;15.20;99.90
35796;DHT22;21916;52.428;13.302;2022-10-16T02:37:21;15.20;99.90
35796;DHT22;21916;52.428;13.302;2022-10-16T02:39:47;15.20;99.90
35796;DHT22;21916;52.428;13.302;2022-10-16T02:42:14;15.20;99.90
35796;DHT22;21916;52.428;13.302;2022-10-16T02:44:41;15.20;99.90
35796;DHT22;21916;52.428;13.302;2022-10-16T02:47:07;15.30;99.90
35796;DHT22;21916;52.428;13.302;2022-10-16T02:49:33;15.20;99.90
35796;DHT22;21916;52.428;13.302;2022-10-16T02:52:01;15.20;99.90
35796;DHT22;21916;52.428;13.302;2022-10-16T02:54:27;15.20;99.90
35796;DHT22;21916;52.428;13.302;2022-10-16T02:56:53;15.20;99.90
35796;DHT22;21916;52.428;13.302;2022-10-16T02:59:18;15.20;99.90
35796;DHT22;21916;52.428;13.302;2022-10-16T03:01:44;15.20;99.90
35796;DHT22;21916;52.428;13.302;2022-10-16T03:04:10;15.10;99.90
35796;DHT22;21916;52.428;13.302;2022-10-16T03:06:36;15.10;99.90
35796;DHT22;21916;52.428;13.302;2022-10-16T03:09:02;15.10;99.90
35796;DHT22;21916;52.428;13.302;2022-10-16T03:11:30;15.00;99.90
35796;DHT22;21916;52.428;13.302;2022-10-16T03:13:56;15.00;99.90
35796;DHT22;21916;52.428;13.302;2022-10-16T03:16:22;15.00;99.90
35796;DHT22;21916;52.428;13.302;2022-10-16T03:18:48;15.00;99.90
35796;DHT22;21916;52.428;13.302;2022-10-16T03:21:15;15.00;99.90
35796;DHT22;21916;52.428;13.302;2022-10-16T03:23:41;15.00;99.90
35796;DHT22;21916;52.428;13.302;2022-10-16T03:26:06;15.00;99.90
35796;DHT22;21916;52.428;13.302;2022-10-16T03:28:32;15.00;99.90
35796;DHT22;21916;52.428;13.302;2022-10-16T03:30:58;14.90;99.90
35796;DHT22;21916;52.428;13.302;2022-10-16T03:33:23;14.90;99.90
35796;DHT22;21916;52.428;13.302;2022-10-16T03:35:53;14.90;99.90
35796;DHT22;21916;52.428;13.302;2022-10-16T03:38:19;14.90;99.90
35796;DHT22;21916;52.428;13.302;2022-10-16T03:40:45;14.90;99.90
35796;DHT22;21916;52.428;13.302;2022-10-16T03:43:11;14.80;99.90
35796;DHT22;21916;52.428;13.302;2022-10-16T03:45:37;14.70;99.90
35796;DHT22;21916;52.428;13.302;2022-10-16T03:48:03;14.80;99.90
35796;DHT22;21916;52.428;13.302;2022-10-16T03:50:29;14.80;99.90
35796;DHT22;21916;52.428;13.302;2022-10-16T03:52:55;14.80;99.90
35796;DHT22;21916;52.428;13.302;2022-10-16T03:55:20;14.80;99.90
35796;DHT22;21916;52.428;13.302;2022-10-16T03:57:46;14.70;99.90
35796;DHT22;21916;52.428;13.302;2022-10-16T04:00:12;14.70;99.90
35796;DHT22;21916;52.428;13.302;2022-10-16T04:02:38;14.80;99.90
35796;DHT22;21916;52.428;13.302;2022-10-16T04:05:05;14.80;99.90
35796;DHT22;21916;52.428;13.302;2022-10-16T04:07:31;14.80;99.90
35796;DHT22;21916;52.428;13.302;2022-10-16T04:09:57;14.80;99.90
35796;DHT22;21916;52.428;13.302;2022-10-16T04:12:25;14.80;99.90
35796;DHT22;21916;52.428;13.302;2022-10-16T04:14:51;14.80;99.90
35796;DHT22;21916;52.428;13.302;2022-10-16T04:17:16;14.90;99.90
35796;DHT22;21916;52.428;13.302;2022-10-16T04:19:44;14.90;99.90
35796;DHT22;21916;52.428;13.302;2022-10-16T04:22:10;14.90;99.90
35796;DHT22;21916;52.428;13.302;2022-10-16T04:24:36;14.80;99.90
35796;DHT22;21916;52.428;13.302;2022-10-16T04:27:02;14.80;99.90
35796;DHT22;21916;52.428;13.302;2022-10-16T04:29:29;14.80;99.90
35796;DHT22;21916;52.428;13.302;2022-10-16T04:31:55;14.80;99.90
35796;DHT22;21916;52.428;13.302;2022-10-16T04:34:20;14.80;99.90
35796;DHT22;21916;52.428;13.302;2022-10-16T04:36:47;14.70;99.90
35796;DHT22;21916;52.428;13.302;2022-10-16T04:39:13;14.70;99.90
35796;DHT22;21916;52.428;13.302;2022-10-16T04:41:39;14.70;99.90
35796;DHT22;21916;52.428;13.302;2022-10-16T04:44:04;14.70;99.90
35796;DHT22;21916;52.428;13.302;2022-10-16T04:46:30;14.70;99.90
35796;DHT22;21916;52.428;13.302;2022-10-16T04:48:56;14.80;99.90
35796;DHT22;21916;52.428;13.302;2022-10-16T04:51:22;14.80;99.90
35796;DHT22;21916;52.428;13.302;2022-10-16T04:53:47;14.70;99.90
35796;DHT22;21916;52.428;13.302;2022-10-16T04:56:13;14.60;99.90
35796;DHT22;21916;52.428;13.302;2022-10-16T04:58:40;14.50;99.90
35796;DHT22;21916;52.428;13.302;2022-10-16T05:01:06;14.40;99.90
35796;DHT22;21916;52.428;13.302;2022-10-16T05:03:31;14.30;99.90
35796;DHT22;21916;52.428;13.302;2022-10-16T05:05:57;14.40;99.90
35796;DHT22;21916;52.428;13.302;2022-10-16T05:08:23;14.40;99.90
35796;DHT22;21916;52.428;13.302;2022-10-16T05:10:49;14.40;99.90
35796;DHT22;21916;52.428;13.302;2022-10-16T05:13:15;14.40;99.90
35796;DHT22;21916;52.428;13.302;2022-10-16T05:15:40;14.40;99.90
35796;DHT22;21916;52.428;13.302;2022-10-16T05:18:06;14.30;99.90
35796;DHT22;21916;52.428;13.302;2022-10-16T05:20:32;14.30;99.90
35796;DHT22;21916;52.428;13.302;2022-10-16T05:22:58;14.30;99.90
35796;DHT22;21916;52.428;13.302;2022-10-16T05:25:23;14.30;99.90
35796;DHT22;21916;52.428;13.302;2022-10-16T05:27:49;14.30;99.90
35796;DHT22;21916;52.428;13.302;2022-10-16T05:30:18;14.20;99.90
35796;DHT22;21916;52.428;13.302;2022-10-16T05:32:46;14.10;99.90
35796;DHT22;21916;52.428;13.302;2022-10-16T05:35:12;14.10;99.90
35796;DHT22;21916;52.428;13.302;2022-10-16T05:37:38;14.10;99.90
35796;DHT22;21916;52.428;13.302;2022-10-16T05:40:03;14.10;99.90
35796;DHT22;21916;52.428;13.302;2022-10-16T05:42:30;14.10;99.90
35796;DHT22;21916;52.428;13.302;2022-10-16T05:44:56;14.00;99.90
35796;DHT22;21916;52.428;13.302;2022-10-16T05:47:22;14.00;99.90
35796;DHT22;21916;52.428;13.302;2022-10-16T05:49:47;14.00;99.90
35796;DHT22;21916;52.428;13.302;2022-10-16T05:52:13;14.10;99.90
35796;DHT22;21916;52.428;13.302;2022-10-16T05:54:39;14.10;99.90
35796;DHT22;21916;52.428;13.302;2022-10-16T05:57:08;14.10;99.90
35796;DHT22;21916;52.428;13.302;2022-10-16T05:59:33;14.10;99.90
35796;DHT22;21916;52.428;13.302;2022-10-16T06:01:59;14.20;99.90
35796;DHT22;21916;52.428;13.302;2022-10-16T06:04:25;14.20;99.90
35796;DHT22;21916;52.428;13.302;2022-10-16T06:06:50;14.20;99.90
35796;DHT22;21916;52.428;13.302;2022-10-16T06:09:16;14.30;99.90
35796;DHT22;21916;52.428;13.302;2022-10-16T06:11:42;14.30;99.90
35796;DHT22;21916;52.428;13.302;2022-10-16T06:14:08;14.20;99.90
35796;DHT22;21916;52.428;13.302;2022-10-16T06:16:34;14.30;99.90
35796;DHT22;21916;52.428;13.302;2022-10-16T06:19:01;14.20;99.90
35796;DHT22;21916;52.428;13.302;2022-10-16T06:21:27;14.30;99.90
35796;DHT22;21916;52.428;13.302;2022-10-16T06:23:56;14.30;99.90
35796;DHT22;21916;52.428;13.302;2022-10-16T06:26:23;14.30;99.90
35796;DHT22;21916;52.428;13.302;2022-10-16T06:28:49;14.40;99.90
35796;DHT22;21916;52.428;13.302;2022-10-16T06:31:15;14.40;99.90
35796;DHT22;21916;52.428;13.302;2022-10-16T06:33:41;14.40;99.90
35796;DHT22;21916;52.428;13.302;2022-10-16T06:36:09;14.50;99.90
35796;DHT22;21916;52.428;13.302;2022-10-16T06:38:35;14.50;99.90
35796;DHT22;21916;52.428;13.302;2022-10-16T06:41:01;14.50;99.90
35796;DHT22;21916;52.428;13.302;2022-10-16T06:43:28;14.60;99.90
35796;DHT22;21916;52.428;13.302;2022-10-16T06:45:57;14.60;99.90
35796;DHT22;21916;52.428;13.302;2022-10-16T06:48:24;14.70;99.90
35796;DHT22;21916;52.428;13.302;2022-10-16T06:53:22;14.80;99.90
35796;DHT22;21916;52.428;13.302;2022-10-16T06:55:48;14.80;99.90
35796;DHT22;21916;52.428;13.302;2022-10-16T06:58:14;14.80;99.90
35796;DHT22;21916;52.428;13.302;2022-10-16T07:00:40;14.90;99.90
35796;DHT22;21916;52.428;13.302;2022-10-16T07:03:05;14.90;99.90
35796;DHT22;21916;52.428;13.302;2022-10-16T07:05:31;15.00;99.90
35796;DHT22;21916;52.428;13.302;2022-10-16T07:07:57;15.20;99.90
35796;DHT22;21916;52.428;13.302;2022-10-16T07:10:23;15.20;99.90
35796;DHT22;21916;52.428;13.302;2022-10-16T07:12:51;15.40;99.90
35796;DHT22;21916;52.428;13.302;2022-10-16T07:15:17;15.50;99.90
35796;DHT22;21916;52.428;13.302;2022-10-16T07:17:44;15.60;99.90
35796;DHT22;21916;52.428;13.302;2022-10-16T07:20:10;15.60;99.90
35796;DHT22;21916;52.428;13.302;2022-10-16T07:22:35;15.80;99.90
35796;DHT22;21916;52.428;13.302;2022-10-16T07:25:01;15.90;99.90
35796;DHT22;21916;52.428;13.302;2022-10-16T07:27:27;16.10;99.90
35796;DHT22;21916;52.428;13.302;2022-10-16T07:29:53;16.30;99.90
35796;DHT22;21916;52.428;13.302;2022-10-16T07:32:19;16.50;99.90
35796;DHT22;21916;52.428;13.302;2022-10-16T07:34:45;16.70;99.90
35796;DHT22;21916;52.428;13.302;2022-10-16T07:37:11;16.70;99.90
35796;DHT22;21916;52.428;13.302;2022-10-16T07:39:36;16.80;99.90
35796;DHT22;21916;52.428;13.302;2022-10-16T07:42:02;16.80;99.90
35796;DHT22;21916;52.428;13.302;2022-10-16T07:44:28;16.80;99.90
35796;DHT22;21916;52.428;13.302;2022-10-16T07:46:53;16.80;99.90
35796;DHT22;21916;52.428;13.302;2022-10-16T07:49:19;16.80;99.90
35796;DHT22;21916;52.428;13.302;2022-10-16T07:51:45;16.70;99.90
35796;DHT22;21916;52.428;13.302;2022-10-16T07:54:11;16.70;99.90
35796;DHT22;21916;52.428;13.302;2022-10-16T07:56:37;16.70;99.90
35796;DHT22;21916;52.428;13.302;2022-10-16T07:59:03;16.70;99.90
35796;DHT22;21916;52.428;13.302;2022-10-16T08:01:28;16.80;99.90
35796;DHT22;21916;52.428;13.302;2022-10-16T08:03:54;16.80;99.90
35796;DHT22;21916;52.428;13.302;2022-10-16T08:06:20;16.70;99.90
35796;DHT22;21916;52.428;13.302;2022-10-16T08:08:47;16.80;99.90
35796;DHT22;21916;52.428;13.302;2022-10-16T08:11:13;16.80;99.90
35796;DHT22;21916;52.428;13.302;2022-10-16T08:13:40;16.90;99.90
35796;DHT22;21916;52.428;13.302;2022-10-16T08:16:06;16.90;99.90
35796;DHT22;21916;52.428;13.302;2022-10-16T08:18:39;17.00;99.90
35796;DHT22;21916;52.428;13.302;2022-10-16T08:21:06;17.00;99.90
35796;DHT22;21916;52.428;13.302;2022-10-16T08:23:32;17.00;99.90
35796;DHT22;21916;52.428;13.302;2022-10-16T08:26:02;17.10;99.90
35796;DHT22;21916;52.428;13.302;2022-10-16T08:28:28;17.10;99.90
35796;DHT22;21916;52.428;13.302;2022-10-16T08:30:54;17.30;99.90
35796;DHT22;21916;52.428;13.302;2022-10-16T08:33:22;17.40;99.90
35796;DHT22;21916;52.428;13.302;2022-10-16T08:35:51;17.60;99.90
35796;DHT22;21916;52.428;13.302;2022-10-16T08:38:19;17.60;99.90
35796;DHT22;21916;52.428;13.302;2022-10-16T08:40:45;17.60;99.90
35796;DHT22;21916;52.428;13.302;2022-10-16T08:51:07;17.50;99.90
35796;DHT22;21916;52.428;13.302;2022-10-16T08:53:36;17.50;99.90
35796;DHT22;21916;52.428;13.302;2022-10-16T08:56:04;17.50;99.90
35796;DHT22;21916;52.428;13.302;2022-10-16T08:58:30;17.60;99.90
35796;DHT22;21916;52.428;13.302;2022-10-16T09:00:58;17.50;99.90
35796;DHT22;21916;52.428;13.302;2022-10-16T09:16:32;18.30;99.90
35796;DHT22;21916;52.428;13.302;2022-10-16T09:19:14;18.40;99.90
35796;DHT22;21916;52.428;13.302;2022-10-16T09:21:43;18.50;99.90
35796;DHT22;21916;52.428;13.302;2022-10-16T09:24:16;18.40;99.90
35796;DHT22;21916;52.428;13.302;2022-10-16T09:26:42;18.40;99.90
35796;DHT22;21916;52.428;13.302;2022-10-16T09:29:10;18.60;99.90
35796;DHT22;21916;52.428;13.302;2022-10-16T09:31:38;18.70;99.90
35796;DHT22;21916;52.428;13.302;2022-10-16T09:34:04;18.90;99.90
35796;DHT22;21916;52.428;13.302;2022-10-16T09:36:42;18.80;99.90
35796;DHT22;21916;52.428;13.302;2022-10-16T09:39:09;18.80;99.90
35796;DHT22;21916;52.428;13.302;2022-10-16T09:41:40;18.80;99.90
35796;DHT22;21916;52.428;13.302;2022-10-16T09:46:48;19.00;99.90
35796;DHT22;21916;52.428;13.302;2022-10-16T09:49:24;19.20;99.90
35796;DHT22;21916;52.428;13.302;2022-10-16T09:51:50;19.10;99.90
35796;DHT22;21916;52.428;13.302;2022-10-16T09:54:18;19.00;99.90
35796;DHT22;21916;52.428;13.302;2022-10-16T09:56:44;18.90;99.90
35796;DHT22;21916;52.428;13.302;2022-10-16T09:59:18;18.80;99.90
35796;DHT22;21916;52.428;13.302;2022-10-16T10:01:51;18.90;99.90
35796;DHT22;21916;52.428;13.302;2022-10-16T10:04:21;19.00;99.90
35796;DHT22;21916;52.428;13.302;2022-10-16T10:06:48;19.40;99.90
35796;DHT22;21916;52.428;13.302;2022-10-16T10:09:24;19.60;99.90
35796;DHT22;21916;52.428;13.302;2022-10-16T10:11:59;19.70;99.90
35796;DHT22;21916;52.428;13.302;2022-10-16T10:19:37;19.90;99.90
35796;DHT22;21916;52.428;13.302;2022-10-16T10:24:55;19.90;99.90
35796;DHT22;21916;52.428;13.302;2022-10-16T10:27:20;20.20;99.90
35796;DHT22;21916;52.428;13.302;2022-10-16T10:30:00;20.30;99.90
35796;DHT22;21916;52.428;13.302;2022-10-16T10:32:42;20.40;99.90
35796;DHT22;21916;52.428;13.302;2022-10-16T10:35:14;20.30;99.90
35796;DHT22;21916;52.428;13.302;2022-10-16T10:42:55;20.40;99.90
35796;DHT22;21916;52.428;13.302;2022-10-16T10:45:28;20.30;99.90
35796;DHT22;21916;52.428;13.302;2022-10-16T10:48:11;20.50;99.90
35796;DHT22;21916;52.428;13.302;2022-10-16T10:50:41;20.80;99.90
35796;DHT22;21916;52.428;13.302;2022-10-16T10:53:16;21.70;99.90
35796;DHT22;21916;52.428;13.302;2022-10-16T10:58:14;22.60;99.90
35796;DHT22;21916;52.428;13.302;2022-10-16T11:03:42;23.60;99.90
35796;DHT22;21916;52.428;13.302;2022-10-16T11:06:15;22.90;99.90
35796;DHT22;21916;52.428;13.302;2022-10-16T11:11:23;23.30;99.90
35796;DHT22;21916;52.428;13.302;2022-10-16T11:16:35;25.10;99.70
35796;DHT22;21916;52.428;13.302;2022-10-16T11:21:29;24.30;99.50
35796;DHT22;21916;52.428;13.302;2022-10-16T11:24:00;23.50;99.70
35796;DHT22;21916;52.428;13.302;2022-10-16T11:26:28;22.80;99.90
35796;DHT22;21916;52.428;13.302;2022-10-16T11:28:56;22.70;99.90
35796;DHT22;21916;52.428;13.302;2022-10-16T11:31:24;22.20;99.90
35796;DHT22;21916;52.428;13.302;2022-10-16T11:33:57;21.90;99.90
35796;DHT22;21916;52.428;13.302;2022-10-16T11:36:39;21.90;99.90
35796;DHT22;21916;52.428;13.302;2022-10-16T11:41:51;22.60;99.90
35796;DHT22;21916;52.428;13.302;2022-10-16T11:47:11;23.60;99.50
35796;DHT22;21916;52.428;13.302;2022-10-16T11:49:38;24.60;98.10
35796;DHT22;21916;52.428;13.302;2022-10-16T11:52:23;24.50;97.30
35796;DHT22;21916;52.428;13.302;2022-10-16T11:54:55;24.40;97.50
35796;DHT22;21916;52.428;13.302;2022-10-16T11:57:23;24.30;97.50
35796;DHT22;21916;52.428;13.302;2022-10-16T11:59:51;24.00;97.80
35796;DHT22;21916;52.428;13.302;2022-10-16T12:02:33;24.30;98.20
35796;DHT22;21916;52.428;13.302;2022-10-16T12:05:15;24.40;98.10
35796;DHT22;21916;52.428;13.302;2022-10-16T12:07:57;24.70;97.50
35796;DHT22;21916;52.428;13.302;2022-10-16T12:10:28;24.60;97.40
35796;DHT22;21916;52.428;13.302;2022-10-16T12:12:54;24.20;97.30
35796;DHT22;21916;52.428;13.302;2022-10-16T12:15:27;23.90;97.60
35796;DHT22;21916;52.428;13.302;2022-10-16T12:17:53;23.40;98.10
35796;DHT22;21916;52.428;13.302;2022-10-16T12:22:49;24.20;96.60
35796;DHT22;21916;52.428;13.302;2022-10-16T12:27:54;26.40;93.90
35796;DHT22;21916;52.428;13.302;2022-10-16T12:30:22;26.80;93.30
35796;DHT22;21916;52.428;13.302;2022-10-16T12:32:55;28.00;92.30
35796;DHT22;21916;52.428;13.302;2022-10-16T12:35:22;29.70;90.70
35796;DHT22;21916;52.428;13.302;2022-10-16T12:37:49;29.00;89.20
35796;DHT22;21916;52.428;13.302;2022-10-16T12:40:22;29.20;89.70
35796;DHT22;21916;52.428;13.302;2022-10-16T12:42:49;29.90;87.30
35796;DHT22;21916;52.428;13.302;2022-10-16T12:47:51;29.50;86.00
35796;DHT22;21916;52.428;13.302;2022-10-16T12:50:38;29.20;87.30
35796;DHT22;21916;52.428;13.302;2022-10-16T12:53:19;29.00;86.50
35796;DHT22;21916;52.428;13.302;2022-10-16T12:55:49;29.00;86.40
35796;DHT22;21916;52.428;13.302;2022-10-16T13:03:52;30.10;84.40
35796;DHT22;21916;52.428;13.302;2022-10-16T13:06:39;31.00;81.90
35796;DHT22;21916;52.428;13.302;2022-10-16T13:09:17;29.80;82.00
35796;DHT22;21916;52.428;13.302;2022-10-16T13:14:39;28.70;83.80
35796;DHT22;21916;52.428;13.302;2022-10-16T13:27:25;27.80;82.60
35796;DHT22;21916;52.428;13.302;2022-10-16T13:30:00;26.40;85.40
35796;DHT22;21916;52.428;13.302;2022-10-16T13:32:26;25.40;88.10
35796;DHT22;21916;52.428;13.302;2022-10-16T13:34:52;24.80;90.20
35796;DHT22;21916;52.428;13.302;2022-10-16T13:37:24;24.10;91.30
35796;DHT22;21916;52.428;13.302;2022-10-16T13:39:50;23.20;92.40
35796;DHT22;21916;52.428;13.302;2022-10-16T13:44:44;22.40;94.20
35796;DHT22;21916;52.428;13.302;2022-10-16T13:47:15;22.40;94.60
35796;DHT22;21916;52.428;13.302;2022-10-16T13:49:40;23.00;94.50
35796;DHT22;21916;52.428;13.302;2022-10-16T13:52:15;24.40;92.80
35796;DHT22;21916;52.428;13.302;2022-10-16T13:54:42;24.40;92.40
35796;DHT22;21916;52.428;13.302;2022-10-16T13:57:12;24.50;92.30
35796;DHT22;21916;52.428;13.302;2022-10-16T13:59:38;25.50;92.00
35796;DHT22;21916;52.428;13.302;2022-10-16T14:02:16;26.60;90.50
35796;DHT22;21916;52.428;13.302;2022-10-16T14:04:43;27.30;89.20
35796;DHT22;21916;52.428;13.302;2022-10-16T14:07:25;28.30;87.20
35796;DHT22;21916;52.428;13.302;2022-10-16T14:09:53;27.10;88.40
35796;DHT22;21916;52.428;13.302;2022-10-16T14:12:19;28.00;87.70
35796;DHT22;21916;52.428;13.302;2022-10-16T14:14:47;29.40;85.30
35796;DHT22;21916;52.428;13.302;2022-10-16T14:17:18;29.40;83.70
35796;DHT22;21916;52.428;13.302;2022-10-16T14:19:48;29.00;83.10
35796;DHT22;21916;52.428;13.302;2022-10-16T14:22:28;28.60;83.30
35796;DHT22;21916;52.428;13.302;2022-10-16T14:24:55;28.20;83.90
35796;DHT22;21916;52.428;13.302;2022-10-16T14:27:26;28.30;83.40
35796;DHT22;21916;52.428;13.302;2022-10-16T14:30:05;28.20;83.80
35796;DHT22;21916;52.428;13.302;2022-10-16T14:32:33;28.80;83.00
35796;DHT22;21916;52.428;13.302;2022-10-16T14:34:59;29.60;82.00
35796;DHT22;21916;52.428;13.302;2022-10-16T14:37:26;30.30;80.90
35796;DHT22;21916;52.428;13.302;2022-10-16T14:39:53;29.40;80.80
35796;DHT22;21916;52.428;13.302;2022-10-16T14:42:20;28.90;80.50
35796;DHT22;21916;52.428;13.302;2022-10-16T14:44:48;27.70;81.80
35796;DHT22;21916;52.428;13.302;2022-10-16T14:47:18;27.10;82.70
35796;DHT22;21916;52.428;13.302;2022-10-16T14:49:53;27.60;82.50
35796;DHT22;21916;52.428;13.302;2022-10-16T14:52:24;27.70;82.10
35796;DHT22;21916;52.428;13.302;2022-10-16T14:54:55;27.70;81.80
35796;DHT22;21916;52.428;13.302;2022-10-16T14:57:22;27.30;83.10
35796;DHT22;21916;52.428;13.302;2022-10-16T14:59:57;27.20;83.40
35796;DHT22;21916;52.428;13.302;2022-10-16T15:02:30;27.60;83.00
35796;DHT22;21916;52.428;13.302;2022-10-16T15:05:13;28.00;82.10
35796;DHT22;21916;52.428;13.302;2022-10-16T15:10:30;28.10;81.60
35796;DHT22;21916;52.428;13.302;2022-10-16T15:12:57;27.10;82.00
35796;DHT22;21916;52.428;13.302;2022-10-16T15:17:50;26.40;82.80
35796;DHT22;21916;52.428;13.302;2022-10-16T15:20:19;25.80;83.60
35796;DHT22;21916;52.428;13.302;2022-10-16T15:22:45;24.70;86.00
35796;DHT22;21916;52.428;13.302;2022-10-16T15:27:49;23.10;90.20
35796;DHT22;21916;52.428;13.302;2022-10-16T15:30:14;22.50;90.80
35796;DHT22;21916;52.428;13.302;2022-10-16T15:32:43;22.20;91.20
35796;DHT22;21916;52.428;13.302;2022-10-16T15:35:09;21.70;91.90
35796;DHT22;21916;52.428;13.302;2022-10-16T15:37:35;21.50;92.40
35796;DHT22;21916;52.428;13.302;2022-10-16T15:40:00;21.30;92.60
35796;DHT22;21916;52.428;13.302;2022-10-16T15:42:26;20.90;93.30
35796;DHT22;21916;52.428;13.302;2022-10-16T15:44:52;20.70;93.80
35796;DHT22;21916;52.428;13.302;2022-10-16T15:47:19;20.50;94.30
35796;DHT22;21916;52.428;13.302;2022-10-16T15:49:44;20.30;94.80
35796;DHT22;21916;52.428;13.302;2022-10-16T15:52:11;20.20;95.00
35796;DHT22;21916;52.428;13.302;2022-10-16T15:54:37;20.00;95.40
35796;DHT22;21916;52.428;13.302;2022-10-16T15:57:03;19.80;95.90
35796;DHT22;21916;52.428;13.302;2022-10-16T15:59:29;19.70;96.30
35796;DHT22;21916;52.428;13.302;2022-10-16T16:01:55;19.60;96.70
35796;DHT22;21916;52.428;13.302;2022-10-16T16:04:21;19.40;96.90
35796;DHT22;21916;52.428;13.302;2022-10-16T16:06:47;19.20;97.40
35796;DHT22;21916;52.428;13.302;2022-10-16T16:09:13;19.10;98.00
35796;DHT22;21916;52.428;13.302;2022-10-16T16:11:39;19.00;98.30
35796;DHT22;21916;52.428;13.302;2022-10-16T16:14:05;18.80;98.80
35796;DHT22;21916;52.428;13.302;2022-10-16T16:16:31;18.60;99.10
35796;DHT22;21916;52.428;13.302;2022-10-16T16:19:02;18.50;99.40
35796;DHT22;21916;52.428;13.302;2022-10-16T16:21:28;18.40;99.90
35796;DHT22;21916;52.428;13.302;2022-10-16T16:23:54;18.40;99.90
35796;DHT22;21916;52.428;13.302;2022-10-16T16:26:27;18.40;99.90
35796;DHT22;21916;52.428;13.302;2022-10-16T16:28:53;18.40;99.90
35796;DHT22;21916;52.428;13.302;2022-10-16T16:31:19;18.30;99.90
35796;DHT22;21916;52.428;13.302;2022-10-16T16:33:45;18.10;99.90
35796;DHT22;21916;52.428;13.302;2022-10-16T16:36:11;18.20;99.90
35796;DHT22;21916;52.428;13.302;2022-10-16T16:38:37;18.20;99.90
35796;DHT22;21916;52.428;13.302;2022-10-16T16:43:38;17.90;99.90
35796;DHT22;21916;52.428;13.302;2022-10-16T16:46:03;17.90;99.90
35796;DHT22;21916;52.428;13.302;2022-10-16T16:48:29;18.00;99.90
35796;DHT22;21916;52.428;13.302;2022-10-16T16:50:55;17.90;99.90
35796;DHT22;21916;52.428;13.302;2022-10-16T16:53:22;17.90;99.90
35796;DHT22;21916;52.428;13.302;2022-10-16T16:55:48;17.90;99.90
35796;DHT22;21916;52.428;13.302;2022-10-16T16:58:13;17.80;99.90
35796;DHT22;21916;52.428;13.302;2022-10-16T17:00:45;17.70;99.90
35796;DHT22;21916;52.428;13.302;2022-10-16T17:03:14;17.50;99.90
35796;DHT22;21916;52.428;13.302;2022-10-16T17:05:40;17.30;99.90
35796;DHT22;21916;52.428;13.302;2022-10-16T17:08:06;17.10;99.90
35796;DHT22;21916;52.428;13.302;2022-10-16T17:10:32;16.80;99.90